createdAt,value
2023-01-22T00:00:55.365Z,17.95
2023-01-22T00:03:57.119Z,18.55
2023-01-22T00:06:58.600Z,18.77
2023-01-22T00:10:00.272Z,17.60
2023-01-22T00:13:01.952Z,18.30
2023-01-22T00:16:03.688Z,17.08
2023-01-22T00:19:05.220Z,17.50
2023-01-22T00:22:07.134Z,17.63
2023-01-22T00:25:11.368Z,18.02
2023-01-22T00:28:13.385Z,17.92
2023-01-22T00:31:16.277Z,17.60
2023-01-22T00:34:17.836Z,18.52
2023-01-22T00:37:20.360Z,19.60
2023-01-22T00:40:21.940Z,17.45
2023-01-22T00:43:23.510Z,17.52
2023-01-22T00:46:25.372Z,17.02
2023-01-22T00:49:26.864Z,18.05
2023-01-22T00:52:28.387Z,18.35
2023-01-22T00:55:30.800Z,16.52
2023-01-22T00:58:32.382Z,17.08
2023-01-22T01:01:34.034Z,17.90
2023-01-22T01:04:35.512Z,17.70
2023-01-22T01:07:37.064Z,18.20
2023-01-22T01:10:40.105Z,18.08
2023-01-22T01:13:43.037Z,17.92
2023-01-22T01:16:44.614Z,17.73
2023-01-22T01:19:46.266Z,18.67
2023-01-22T01:22:47.830Z,18.58
2023-01-22T01:25:49.396Z,18.38
2023-01-22T01:28:52.555Z,18.02
2023-01-22T01:31:54.741Z,18.60
2023-01-22T01:34:56.446Z,17.70
2023-01-22T01:37:57.959Z,18.05
2023-01-22T01:41:00.293Z,18.15
2023-01-22T01:44:21.331Z,19.15
2023-01-22T01:47:33.125Z,18.17
2023-01-22T01:50:35.199Z,17.65
2023-01-22T01:53:37.643Z,19.00
2023-01-22T01:56:48.930Z,18.42
2023-01-22T01:59:52.661Z,18.70
2023-01-22T02:02:54.371Z,17.88
2023-01-22T02:05:55.996Z,16.20
2023-01-22T02:09:00.316Z,18.85
2023-01-22T02:12:02.917Z,18.10
2023-01-22T02:15:06.408Z,17.35
2023-01-22T02:18:08.139Z,18.17
2023-01-22T02:21:31.266Z,16.73
2023-01-22T02:24:34.146Z,17.52
2023-01-22T02:27:36.975Z,18.17
2023-01-22T02:30:40.913Z,18.15
2023-01-22T02:33:42.793Z,19.27
2023-01-22T02:36:44.916Z,17.35
2023-01-22T02:39:46.572Z,17.42
2023-01-22T02:42:48.119Z,16.98
2023-01-22T02:45:49.799Z,18.15
2023-01-22T02:48:51.922Z,19.60
2023-01-22T02:51:53.854Z,17.83
2023-01-22T02:54:56.749Z,17.95
2023-01-22T02:57:58.316Z,17.52
2023-01-22T03:01:23.890Z,18.85
2023-01-22T03:04:28.874Z,18.80
2023-01-22T03:07:42.159Z,17.70
2023-01-22T03:10:44.559Z,17.02
2023-01-22T03:14:04.595Z,18.48
2023-01-22T03:17:26.278Z,17.48
2023-01-22T03:20:46.401Z,17.52
2023-01-22T03:23:53.475Z,18.55
2023-01-22T03:26:55.066Z,18.42
2023-01-22T03:29:57.747Z,17.85
2023-01-22T03:32:59.245Z,17.55
2023-01-22T03:36:05.437Z,17.95
2023-01-22T03:39:08.546Z,17.75
2023-01-22T03:42:10.262Z,17.17
2023-01-22T03:45:11.827Z,17.77
2023-01-22T03:48:13.440Z,16.83
2023-01-22T03:51:17.147Z,17.95
2023-01-22T03:54:19.050Z,17.23
2023-01-22T03:57:20.760Z,17.02
2023-01-22T04:00:22.458Z,16.58
2023-01-22T04:03:27.785Z,17.23
2023-01-22T04:06:30.636Z,16.33
2023-01-22T04:09:32.334Z,15.20
2023-01-22T04:12:33.877Z,15.23
2023-01-22T04:15:35.439Z,15.43
2023-01-22T04:18:43.528Z,15.07
2023-01-22T04:21:58.225Z,15.48
2023-01-22T04:24:59.803Z,15.38
2023-01-22T04:28:02.677Z,14.48
2023-01-22T04:31:04.713Z,15.32
2023-01-22T04:34:25.274Z,15.55
2023-01-22T04:37:45.458Z,14.38
2023-01-22T04:40:47.626Z,15.05
2023-01-22T04:43:49.129Z,14.55
2023-01-22T04:46:51.026Z,14.88
2023-01-22T04:49:52.609Z,14.02
2023-01-22T04:52:56.072Z,14.02
2023-01-22T04:55:57.777Z,14.70
2023-01-22T04:59:00.513Z,14.88
2023-01-22T05:02:02.404Z,14.73
2023-01-22T05:05:06.801Z,15.98
2023-01-22T05:08:08.647Z,14.73
2023-01-22T05:11:11.671Z,15.48
2023-01-22T05:14:20.351Z,14.68
2023-01-22T05:17:23.192Z,15.63
2023-01-22T05:20:25.564Z,15.63
2023-01-22T05:23:27.644Z,16.13
2023-01-22T05:26:30.408Z,16.15
2023-01-22T05:29:39.504Z,15.55
2023-01-22T05:32:57.040Z,15.55
2023-01-22T05:36:01.317Z,14.30
2023-01-22T05:39:02.943Z,15.80
2023-01-22T05:42:05.262Z,15.63
2023-01-22T05:45:08.482Z,14.50
2023-01-22T05:48:15.091Z,15.98
2023-01-22T05:51:44.478Z,15.30
2023-01-22T05:54:46.506Z,15.57
2023-01-22T05:57:48.781Z,14.93
2023-01-22T06:00:53.535Z,15.63
2023-01-22T06:03:59.094Z,14.95
2023-01-22T06:07:01.132Z,15.55
2023-01-22T06:10:03.824Z,15.25
2023-01-22T06:13:06.723Z,14.73
2023-01-22T06:16:09.154Z,15.60
2023-01-22T06:19:30.975Z,14.77
2023-01-22T06:22:32.817Z,16.13
2023-01-22T06:25:36.346Z,16.38
2023-01-22T06:28:48.018Z,15.95
2023-01-22T06:31:49.742Z,15.40
2023-01-22T06:34:53.378Z,16.77
2023-01-22T06:37:55.091Z,16.45
2023-01-22T06:40:59.461Z,15.93
2023-01-22T06:44:01.538Z,17.10
2023-01-22T06:47:03.137Z,15.85
2023-01-22T06:50:06.941Z,15.82
2023-01-22T06:53:09.354Z,16.23
2023-01-22T06:56:11.129Z,14.82
2023-01-22T06:59:12.783Z,16.52
2023-01-22T07:02:18.744Z,16.73
2023-01-22T07:05:20.808Z,14.98
2023-01-22T07:08:22.453Z,17.48
2023-01-22T07:11:24.070Z,19.73
2023-01-22T07:14:36.416Z,17.52
2023-01-22T07:17:38.673Z,16.48
2023-01-22T07:20:41.802Z,17.80
2023-01-22T07:23:43.446Z,16.77
2023-01-22T07:26:46.196Z,16.95
2023-01-22T07:29:49.966Z,17.70
2023-01-22T07:32:51.556Z,16.20
2023-01-22T07:35:55.567Z,16.88
2023-01-22T07:38:57.257Z,15.48
2023-01-22T07:42:01.127Z,17.70
2023-01-22T07:45:05.520Z,16.17
2023-01-22T07:48:10.526Z,17.33
2023-01-22T07:51:12.703Z,15.23
2023-01-22T07:54:15.058Z,16.85
2023-01-22T07:57:18.609Z,18.95
2023-01-22T08:00:20.767Z,17.42
2023-01-22T08:03:22.551Z,17.80
2023-01-22T08:06:24.125Z,17.35
2023-01-22T08:09:25.833Z,17.13
2023-01-22T08:12:27.489Z,15.65
2023-01-22T08:15:29.111Z,17.60
2023-01-22T08:18:32.792Z,17.35
2023-01-22T08:21:43.420Z,15.65
2023-01-22T08:24:45.084Z,16.88
2023-01-22T08:27:46.654Z,17.45
2023-01-22T08:31:47.399Z,17.08
2023-01-22T08:35:19.782Z,17.13
2023-01-22T08:38:19.138Z,16.55
2023-01-22T08:41:21.108Z,18.00
2023-01-22T08:44:22.961Z,16.48
2023-01-22T08:47:24.581Z,17.58
2023-01-22T08:50:28.797Z,17.85
2023-01-22T08:56:32.328Z,16.50
2023-01-22T08:59:33.994Z,18.33
2023-01-22T09:02:35.618Z,16.55
2023-01-22T09:05:39.753Z,18.88
2023-01-22T09:11:42.814Z,17.08
2023-01-22T09:14:44.363Z,16.80
2023-01-22T09:17:45.889Z,17.25
2023-01-22T09:20:47.404Z,17.45
2023-01-22T09:23:49.069Z,16.80
2023-01-22T09:26:50.575Z,18.80
2023-01-22T09:29:52.233Z,17.83
2023-01-22T09:32:53.929Z,17.90
2023-01-22T09:35:55.502Z,15.77
2023-01-22T09:38:57.146Z,16.25
2023-01-22T09:42:02.596Z,16.50
2023-01-22T09:45:12.028Z,16.98
2023-01-22T09:48:17.830Z,16.35
2023-01-22T09:51:19.747Z,15.85
2023-01-22T09:54:22.243Z,16.40
2023-01-22T09:57:31.673Z,17.38
2023-01-22T10:00:44.299Z,16.92
2023-01-22T10:03:50.480Z,16.90
2023-01-22T10:06:55.225Z,15.48
2023-01-22T10:10:02.403Z,16.60
2023-01-22T10:13:11.309Z,16.38
2023-01-22T10:16:13.057Z,15.90
2023-01-22T10:19:23.575Z,16.63
2023-01-22T10:22:26.869Z,16.02
2023-01-22T10:25:28.726Z,16.47
2023-01-22T10:28:30.683Z,17.25
2023-01-22T10:31:45.312Z,15.38
2023-01-22T10:34:59.148Z,14.20
2023-01-22T10:38:01.143Z,16.77
2023-01-22T10:41:04.265Z,15.95
2023-01-22T10:44:17.906Z,14.18
2023-01-22T10:47:22.846Z,15.02
2023-01-22T10:50:24.369Z,14.00
2023-01-22T10:53:35.786Z,14.73
2023-01-22T10:56:40.361Z,15.00
2023-01-22T10:59:52.501Z,13.90
2023-01-22T11:02:54.343Z,14.20
2023-01-22T11:06:00.332Z,14.25
2023-01-22T11:09:08.542Z,15.98
2023-01-22T11:12:23.015Z,14.88
2023-01-22T11:18:43.700Z,15.65
2023-01-22T11:21:56.131Z,15.23
2023-01-22T11:24:57.704Z,18.55
2023-01-22T11:28:26.930Z,20.52
2023-01-22T11:31:55.986Z,19.80
2023-01-22T11:35:22.753Z,23.33
2023-01-22T11:38:36.464Z,19.65
2023-01-22T11:41:47.487Z,14.50
2023-01-22T11:45:19.956Z,14.52
2023-01-22T11:48:40.010Z,15.05
2023-01-22T11:52:26.895Z,16.13
2023-01-22T11:55:28.379Z,14.85
2023-01-22T11:58:41.805Z,15.05
2023-01-22T12:02:27.584Z,14.68
2023-01-22T12:05:50.359Z,13.65
2023-01-22T12:08:57.732Z,14.88
2023-01-22T12:12:26.875Z,15.25
2023-01-22T12:15:31.173Z,15.80
2023-01-22T12:22:05.948Z,15.25
2023-01-22T12:25:25.801Z,14.50
2023-01-22T12:28:32.103Z,14.40
2023-01-22T12:31:40.069Z,13.70
2023-01-22T12:35:28.857Z,13.82
2023-01-22T12:39:15.731Z,14.30
2023-01-22T12:42:51.168Z,14.18
2023-01-22T12:46:02.480Z,13.20
2023-01-22T12:49:09.110Z,14.07
2023-01-22T12:52:48.077Z,13.27
2023-01-22T12:56:06.090Z,14.15
2023-01-22T12:59:38.866Z,14.18
2023-01-22T13:02:40.652Z,13.65
2023-01-22T13:05:46.805Z,14.48
2023-01-22T13:08:48.725Z,14.68
2023-01-22T13:11:50.382Z,13.50
2023-01-22T13:14:53.612Z,13.80
2023-01-22T13:18:07.524Z,14.63
2023-01-22T13:24:20.518Z,13.48
2023-01-22T13:27:34.335Z,14.15
2023-01-22T13:30:35.927Z,15.15
2023-01-22T13:33:37.459Z,15.52
2023-01-22T13:36:45.021Z,14.00
2023-01-22T13:39:46.585Z,13.95
2023-01-22T13:42:48.662Z,13.63
2023-01-22T13:45:52.514Z,13.73
2023-01-22T13:49:27.907Z,13.85
2023-01-22T13:52:31.547Z,12.88
2023-01-22T13:55:34.008Z,13.13
2023-01-22T13:58:49.233Z,15.15
2023-01-22T14:01:51.719Z,13.93
2023-01-22T14:04:53.218Z,14.18
2023-01-22T14:08:16.404Z,14.73
2023-01-22T14:11:19.185Z,13.10
2023-01-22T14:14:20.832Z,13.35
2023-01-22T14:17:29.526Z,12.32
2023-01-22T14:20:31.379Z,12.52
2023-01-22T14:23:33.214Z,13.63
2023-01-22T14:26:35.544Z,12.13
2023-01-22T14:29:37.293Z,12.85
2023-01-22T14:32:38.853Z,13.05
2023-01-22T14:35:40.475Z,12.35
2023-01-22T14:38:42.132Z,13.75
2023-01-22T14:41:43.649Z,13.02
2023-01-22T14:44:45.297Z,14.10
2023-01-22T14:47:51.776Z,13.82
2023-01-22T14:50:53.350Z,13.57
2023-01-22T14:53:54.904Z,16.25
2023-01-22T14:56:58.222Z,16.05
2023-01-22T15:00:01.621Z,16.37
2023-01-22T15:03:03.235Z,14.63
2023-01-22T15:06:05.255Z,13.73
2023-01-22T15:09:06.889Z,12.85
2023-01-22T15:12:08.421Z,13.45
2023-01-22T15:15:10.424Z,14.50
2023-01-22T15:18:12.045Z,13.65
2023-01-22T15:21:13.988Z,13.98
2023-01-22T15:24:15.667Z,11.95
2023-01-22T15:27:18.712Z,8.75
2023-01-22T15:30:20.716Z,11.45
2023-01-22T15:33:24.067Z,13.73
2023-01-22T15:36:25.537Z,13.57
2023-01-22T15:39:27.163Z,14.60
2023-01-22T15:42:28.774Z,14.25
2023-01-22T15:45:30.745Z,13.02
2023-01-22T15:48:32.500Z,12.98
2023-01-22T15:51:35.410Z,13.10
2023-01-22T15:54:36.954Z,7.70
2023-01-22T15:57:38.494Z,7.88
2023-01-22T16:00:40.722Z,6.72
2023-01-22T16:03:42.909Z,7.75
2023-01-22T16:06:44.682Z,7.60
2023-01-22T16:09:46.299Z,6.43
2023-01-22T16:12:48.067Z,6.30
2023-01-22T16:16:05.595Z,5.78
2023-01-22T16:19:08.451Z,5.72
2023-01-22T16:22:09.971Z,6.10
2023-01-22T16:25:12.109Z,4.78
2023-01-22T16:28:13.644Z,5.78
2023-01-22T16:31:18.529Z,5.72
2023-01-22T16:34:21.086Z,5.32
2023-01-22T16:37:22.714Z,4.30
2023-01-22T16:40:24.208Z,4.35
2023-01-22T16:43:25.779Z,5.00
2023-01-22T16:46:32.398Z,10.95
2023-01-22T16:49:34.388Z,11.85
2023-01-22T16:52:36.065Z,8.50
2023-01-22T16:55:37.687Z,9.10
2023-01-22T16:58:39.535Z,16.88
2023-01-22T17:01:41.660Z,8.85
2023-01-22T17:04:43.351Z,11.88
2023-01-22T17:07:44.921Z,8.82
2023-01-22T17:10:46.403Z,9.05
2023-01-22T17:13:48.165Z,4.80
2023-01-22T17:16:50.322Z,4.93
2023-01-22T17:19:51.872Z,4.88
2023-01-22T17:22:54.335Z,4.38
2023-01-22T17:25:55.958Z,4.25
2023-01-22T17:28:57.532Z,4.38
2023-01-22T17:31:59.236Z,4.95
2023-01-22T17:35:00.909Z,9.57
2023-01-22T17:38:02.529Z,10.98
2023-01-22T17:41:10.033Z,7.55
2023-01-22T17:44:11.877Z,8.23
2023-01-22T17:47:13.570Z,7.07
2023-01-22T17:50:15.787Z,8.23
2023-01-22T17:54:13.331Z,8.70
2023-01-22T17:57:15.478Z,9.50
2023-01-22T18:00:18.578Z,8.73
2023-01-22T18:03:20.252Z,7.00
2023-01-22T18:06:21.861Z,6.95
2023-01-22T18:09:23.831Z,7.18
2023-01-22T18:12:25.502Z,7.35
2023-01-22T18:15:27.207Z,7.78
2023-01-22T18:18:28.854Z,9.15
2023-01-22T18:21:30.536Z,8.65
2023-01-22T18:24:34.267Z,10.05
2023-01-22T18:27:35.946Z,8.00
2023-01-22T18:30:37.535Z,7.43
2023-01-22T18:33:46.077Z,7.55
2023-01-22T18:36:48.254Z,9.18
2023-01-22T18:39:49.925Z,9.25
2023-01-22T18:42:51.537Z,9.65
2023-01-22T18:45:53.145Z,9.50
2023-01-22T18:48:57.450Z,8.88
2023-01-22T18:52:00.930Z,8.40
2023-01-22T18:55:02.755Z,8.25
2023-01-22T18:58:08.595Z,7.60
2023-01-22T19:01:17.794Z,9.15
2023-01-22T19:04:21.828Z,10.10
2023-01-22T19:10:25.093Z,9.30
2023-01-22T19:13:26.613Z,9.48
2023-01-22T19:16:28.762Z,8.93
2023-01-22T19:19:30.355Z,8.30
2023-01-22T19:22:31.825Z,8.38
2023-01-22T19:25:33.410Z,7.47
2023-01-22T19:28:34.930Z,7.93
2023-01-22T19:31:39.596Z,7.90
2023-01-22T19:34:45.565Z,8.30
2023-01-22T19:37:47.571Z,9.50
2023-01-22T19:40:49.367Z,10.88
2023-01-22T19:43:55.504Z,9.38
2023-01-22T19:46:57.383Z,9.07
2023-01-22T19:49:59.095Z,9.95
2023-01-22T19:53:00.799Z,10.98
2023-01-22T19:56:03.421Z,10.02
2023-01-22T19:59:08.231Z,10.55
2023-01-22T20:02:14.248Z,8.85
2023-01-22T20:05:17.582Z,8.43
2023-01-22T20:08:19.447Z,9.05
2023-01-22T20:11:21.028Z,8.98
2023-01-22T20:14:25.828Z,10.98
2023-01-22T20:17:27.411Z,10.18
2023-01-22T20:20:28.951Z,10.00
2023-01-22T20:23:30.473Z,10.65
2023-01-22T20:26:32.155Z,8.55
2023-01-22T20:29:33.976Z,9.73
2023-01-22T20:32:35.889Z,8.75
2023-01-22T20:35:41.835Z,8.95
2023-01-22T20:38:45.813Z,8.98
2023-01-22T20:44:49.242Z,6.47
2023-01-22T20:47:50.760Z,7.55
2023-01-22T20:50:52.308Z,6.97
2023-01-22T20:53:55.692Z,6.97
2023-01-22T20:56:57.313Z,7.32
2023-01-22T20:59:58.926Z,7.75
2023-01-22T21:03:00.532Z,7.93
2023-01-22T21:06:04.254Z,8.27
2023-01-22T21:09:07.600Z,10.43
2023-01-22T21:12:10.473Z,13.85
2023-01-22T21:15:20.049Z,10.32
2023-01-22T21:18:23.402Z,8.93
2023-01-22T21:21:25.406Z,8.90
2023-01-22T21:24:27.826Z,9.80
2023-01-22T21:27:29.345Z,9.65
2023-01-22T21:30:31.494Z,11.88
2023-01-22T21:33:33.362Z,9.82
2023-01-22T21:36:36.115Z,10.70
2023-01-22T21:39:39.486Z,11.70
2023-01-22T21:42:59.913Z,10.32
2023-01-22T21:46:21.039Z,9.80
2023-01-22T21:49:24.440Z,9.00
2023-01-22T21:52:28.323Z,9.00
2023-01-22T21:55:30.165Z,9.85
2023-01-22T21:58:31.735Z,10.13
2023-01-22T22:01:34.371Z,12.05
2023-01-22T22:04:38.413Z,14.10
2023-01-22T22:07:43.648Z,10.85
2023-01-22T22:10:49.806Z,10.98
2023-01-22T22:13:51.453Z,10.10
2023-01-22T22:16:53.480Z,9.65
2023-01-22T22:19:55.025Z,8.73
2023-01-22T22:22:56.558Z,8.60
2023-01-22T22:25:58.795Z,10.15
2023-01-22T22:29:00.561Z,10.15
2023-01-22T22:32:02.173Z,10.77
2023-01-22T22:35:03.910Z,10.50
2023-01-22T22:38:05.540Z,12.13
2023-01-22T22:41:15.708Z,13.80
2023-01-22T22:44:17.882Z,13.43
2023-01-22T22:47:19.473Z,11.27
2023-01-22T22:50:21.183Z,13.45
2023-01-22T22:53:22.934Z,12.70
2023-01-22T22:56:25.678Z,11.32
2023-01-22T22:59:27.274Z,11.40
2023-01-22T23:02:28.842Z,12.65
2023-01-22T23:05:30.556Z,14.90
2023-01-22T23:08:32.113Z,14.75
2023-01-22T23:11:35.026Z,16.08
2023-01-22T23:14:36.593Z,15.98
2023-01-22T23:17:38.068Z,15.52
2023-01-22T23:20:39.590Z,13.20
2023-01-22T23:23:41.731Z,12.45
2023-01-22T23:26:44.765Z,12.88
2023-01-22T23:29:46.358Z,14.70
2023-01-22T23:32:47.878Z,14.90
2023-01-22T23:35:51.281Z,15.30
2023-01-22T23:38:53.599Z,15.77
2023-01-22T23:41:55.207Z,17.13
2023-01-22T23:44:56.814Z,16.02
2023-01-22T23:47:58.435Z,16.02
2023-01-22T23:51:01.128Z,14.93
2023-01-22T23:54:02.615Z,15.23
2023-01-22T23:57:04.144Z,14.57
